Terminal Aerodrome Forecast
Issued by NWS Twin Cities, MN

Home | Current Version | Previous Version | Graphics & Text | Print | Product List | Glossary On
Versions: 1 2 3 4 5 6 7 8 9 10 11 12 13 14 15 16 17 18 19 20 21 22 23 24 25 26 27 28
000
FTUS43 KMPX 192300
TAFMSP
TAF
KMSP 192326Z 2000/2106 18013KT P6SM BKN045 OVC070
     FM200200 18007KT P6SM SCT100 BKN120
     FM201000 17007KT 6SM HZ FEW020 SCT060 BKN120
     FM201400 19014G21KT P6SM SCT060 BKN150
     FM210200 18007KT P6SM SCT100 BKN200=

USA.gov is the U.S. government's official web portal to all federal, state and local government web resources and services.